LBSF/SOF METAR and TAF weather

Enter ICAO airport designator
Station Type Date Time Source
LBSF METAR 2020/01/19 20:00 UTC NOAA

LBSF 192000Z 09004KT 9999 OVC029 M01/M05 Q1030 NOSIG


Station Type Date Time Source
LBSF Decoded METAR 2020/01/19 20:00 UTC NOAA

Sofia Observ. , Bulgaria (LBSF) 42-39N 023-23E 595M
Jan 19, 2020 - 03:00 PM EST / 2020.01.19 2000 UTC
Wind: from the E (090 degrees) at 5 MPH (4 KT):0
Visibility: greater than 7 mile(s):0
Sky conditions: overcast
Temperature: 30 F (-1 C)
Windchill: 24 F (-4 C):1
Dew Point: 23 F (-5 C)
Relative Humidity: 74%
Pressure (altimeter): 30.42 in. Hg (1030 hPa)
ob: LBSF 192000Z 09004KT 9999 OVC029 M01/M05 Q1030 NOSIG
cycle: 20

Station Type Date Time Source
LBSF TAF 2020/01/19 18:18 UTC NOAA

TAF LBSF 191700Z 1918/2018 04010KT 9999 OVC030
BECMG 1918/1920 VRB04KT PROB40
TEMPO 2002/2006 3000 BR SCT015
BECMG 2005/2008 29010KT SCT040

Example: see airport list